Accueil
METAR-TAF:

METAR-TAF

Aéroports :

Aéroport international de Tuzla

Tuzla, Bosnie-Herzégovine

latitude: 44-33N, longitude: 018-42E, altitude: 306 m

Observation

Le bulletin a été fait il y a 59 minutes, à 22:00 UTC
Vent 1 kt de direction variable
Température 17°C
Humidité 100%
Pression 1014 hPa
Visibilité 10 km ou plus
pas de nuages en-dessous de 1500 mètres et pas de cumulonimbus.

METAR: LQTZ 032200Z VRB01KT CAVOK 17/17 Q1014

Heure: 00:59 (22:59 UTC)

Prévision

Le bulletin a été fait il y a 5 heures et 59 minutes, à 17:00 UTC
Prévision valable du 03 à 18 UTC au 04 à 18 UTC
Vent 5 kt de est
Visibilité 10 km ou plus
pas de nuages en-dessous de 1500 mètres et pas de cumulonimbus.

TAF: LQTZ 031700Z 0318/0418 10005KT CAVOK TX32/0414Z TN14/0403Z

Observations et prévisions météorologiques de plus de 4000 aéroports (messages METAR et TAF).

Les stations disponibles sont représentées par des disques jaunes et rouges sur la carte.

Passer la souris dessus pour voir le nom de la station.

Cliquer dessus pour voir les observations et prévisions météorologiques.

Pour changer de carte: cliquez sur les boutons verts avec une croix noire pour zoomer, sur le bouton vert avec un tiret pour effectuer un zoom arrière, ou sur les flèches vertes pour les cartes adjacentes.


METAR-TAF: